sensor_id;sensor_type;location;lat;lon;timestamp;P1;durP1;ratioP1;P2;durP2;ratioP2
16640;SDS011;8434;47.990;7.880;2023-05-20T00:01:51;9.70;;;5.67;;
16640;SDS011;8434;47.990;7.880;2023-05-20T00:04:38;7.97;;;5.97;;
16640;SDS011;8434;47.990;7.880;2023-05-20T00:07:24;7.93;;;6.30;;
16640;SDS011;8434;47.990;7.880;2023-05-20T00:10:10;8.27;;;6.20;;
16640;SDS011;8434;47.990;7.880;2023-05-20T00:12:55;9.13;;;6.10;;
16640;SDS011;8434;47.990;7.880;2023-05-20T00:15:41;9.97;;;6.33;;
16640;SDS011;8434;47.990;7.880;2023-05-20T00:18:26;6.50;;;5.90;;
16640;SDS011;8434;47.990;7.880;2023-05-20T00:24:10;8.43;;;6.33;;
16640;SDS011;8434;47.990;7.880;2023-05-20T00:26:55;8.17;;;5.93;;
16640;SDS011;8434;47.990;7.880;2023-05-20T00:29:40;9.20;;;6.13;;
16640;SDS011;8434;47.990;7.880;2023-05-20T00:32:26;6.47;;;5.77;;
16640;SDS011;8434;47.990;7.880;2023-05-20T00:35:14;10.37;;;6.53;;
16640;SDS011;8434;47.990;7.880;2023-05-20T00:37:59;7.33;;;5.57;;
16640;SDS011;8434;47.990;7.880;2023-05-20T00:40:46;8.07;;;5.80;;
16640;SDS011;8434;47.990;7.880;2023-05-20T00:43:31;8.57;;;5.77;;
16640;SDS011;8434;47.990;7.880;2023-05-20T00:46:17;8.10;;;6.40;;
16640;SDS011;8434;47.990;7.880;2023-05-20T00:49:02;7.37;;;5.70;;
16640;SDS011;8434;47.990;7.880;2023-05-20T00:51:48;7.00;;;5.83;;
16640;SDS011;8434;47.990;7.880;2023-05-20T00:54:36;7.33;;;6.37;;
16640;SDS011;8434;47.990;7.880;2023-05-20T00:57:23;8.63;;;6.10;;
16640;SDS011;8434;47.990;7.880;2023-05-20T01:00:09;11.20;;;6.93;;
16640;SDS011;8434;47.990;7.880;2023-05-20T01:02:56;7.53;;;5.93;;
16640;SDS011;8434;47.990;7.880;2023-05-20T01:05:45;6.73;;;5.47;;
16640;SDS011;8434;47.990;7.880;2023-05-20T01:08:31;7.80;;;5.80;;
16640;SDS011;8434;47.990;7.880;2023-05-20T01:11:19;8.70;;;5.63;;
16640;SDS011;8434;47.990;7.880;2023-05-20T01:14:08;7.07;;;5.83;;
16640;SDS011;8434;47.990;7.880;2023-05-20T01:16:54;8.63;;;6.00;;
16640;SDS011;8434;47.990;7.880;2023-05-20T01:19:41;7.17;;;5.63;;
16640;SDS011;8434;47.990;7.880;2023-05-20T01:22:28;6.23;;;5.50;;
16640;SDS011;8434;47.990;7.880;2023-05-20T01:25:14;9.47;;;5.73;;
16640;SDS011;8434;47.990;7.880;2023-05-20T01:27:59;8.20;;;6.03;;
16640;SDS011;8434;47.990;7.880;2023-05-20T01:30:47;10.47;;;6.30;;
16640;SDS011;8434;47.990;7.880;2023-05-20T01:33:35;7.07;;;5.73;;
16640;SDS011;8434;47.990;7.880;2023-05-20T01:36:20;7.00;;;5.83;;
16640;SDS011;8434;47.990;7.880;2023-05-20T01:39:07;6.67;;;5.53;;
16640;SDS011;8434;47.990;7.880;2023-05-20T01:41:52;6.77;;;5.93;;
16640;SDS011;8434;47.990;7.880;2023-05-20T01:44:39;6.03;;;5.43;;
16640;SDS011;8434;47.990;7.880;2023-05-20T01:47:24;10.20;;;6.90;;
16640;SDS011;8434;47.990;7.880;2023-05-20T01:50:10;6.93;;;6.10;;
16640;SDS011;8434;47.990;7.880;2023-05-20T01:52:55;7.30;;;6.13;;
16640;SDS011;8434;47.990;7.880;2023-05-20T01:55:43;7.87;;;7.00;;
16640;SDS011;8434;47.990;7.880;2023-05-20T01:58:28;7.77;;;5.90;;
16640;SDS011;8434;47.990;7.880;2023-05-20T02:01:14;6.17;;;5.57;;
16640;SDS011;8434;47.990;7.880;2023-05-20T02:04:00;7.50;;;5.87;;
16640;SDS011;8434;47.990;7.880;2023-05-20T02:06:47;6.87;;;5.70;;
16640;SDS011;8434;47.990;7.880;2023-05-20T02:09:33;7.53;;;5.93;;
16640;SDS011;8434;47.990;7.880;2023-05-20T02:12:20;8.03;;;5.73;;
16640;SDS011;8434;47.990;7.880;2023-05-20T02:15:05;5.97;;;5.27;;
16640;SDS011;8434;47.990;7.880;2023-05-20T02:17:52;6.43;;;5.53;;
16640;SDS011;8434;47.990;7.880;2023-05-20T02:20:37;6.80;;;5.50;;
16640;SDS011;8434;47.990;7.880;2023-05-20T02:23:24;7.43;;;5.37;;
16640;SDS011;8434;47.990;7.880;2023-05-20T02:26:09;8.97;;;5.87;;
16640;SDS011;8434;47.990;7.880;2023-05-20T02:28:56;8.20;;;6.23;;
16640;SDS011;8434;47.990;7.880;2023-05-20T02:31:41;8.47;;;5.90;;
16640;SDS011;8434;47.990;7.880;2023-05-20T02:34:27;9.90;;;5.87;;
16640;SDS011;8434;47.990;7.880;2023-05-20T02:37:13;7.57;;;6.10;;
16640;SDS011;8434;47.990;7.880;2023-05-20T02:39:58;8.93;;;6.20;;
16640;SDS011;8434;47.990;7.880;2023-05-20T02:42:44;7.17;;;5.50;;
16640;SDS011;8434;47.990;7.880;2023-05-20T02:45:30;7.37;;;5.90;;
16640;SDS011;8434;47.990;7.880;2023-05-20T02:48:16;8.03;;;6.60;;
16640;SDS011;8434;47.990;7.880;2023-05-20T02:51:01;7.03;;;5.80;;
16640;SDS011;8434;47.990;7.880;2023-05-20T02:53:47;6.90;;;5.43;;
16640;SDS011;8434;47.990;7.880;2023-05-20T02:56:33;6.47;;;5.77;;
16640;SDS011;8434;47.990;7.880;2023-05-20T02:59:19;7.73;;;5.43;;
16640;SDS011;8434;47.990;7.880;2023-05-20T03:02:06;7.57;;;5.93;;
16640;SDS011;8434;47.990;7.880;2023-05-20T03:04:52;7.27;;;5.60;;
16640;SDS011;8434;47.990;7.880;2023-05-20T03:07:38;8.97;;;5.87;;
16640;SDS011;8434;47.990;7.880;2023-05-20T03:10:23;8.40;;;5.30;;
16640;SDS011;8434;47.990;7.880;2023-05-20T03:13:09;8.33;;;6.00;;
16640;SDS011;8434;47.990;7.880;2023-05-20T03:15:55;8.73;;;6.27;;
16640;SDS011;8434;47.990;7.880;2023-05-20T03:18:42;7.80;;;5.80;;
16640;SDS011;8434;47.990;7.880;2023-05-20T03:21:28;6.00;;;5.23;;
16640;SDS011;8434;47.990;7.880;2023-05-20T03:24:13;7.87;;;5.93;;
16640;SDS011;8434;47.990;7.880;2023-05-20T03:26:59;6.40;;;5.37;;
16640;SDS011;8434;47.990;7.880;2023-05-20T03:29:44;8.63;;;5.87;;
16640;SDS011;8434;47.990;7.880;2023-05-20T03:32:31;6.70;;;5.23;;
16640;SDS011;8434;47.990;7.880;2023-05-20T03:35:18;8.77;;;6.07;;
16640;SDS011;8434;47.990;7.880;2023-05-20T03:38:04;6.90;;;5.70;;
16640;SDS011;8434;47.990;7.880;2023-05-20T03:40:51;9.20;;;6.47;;
16640;SDS011;8434;47.990;7.880;2023-05-20T03:43:36;7.00;;;5.47;;
16640;SDS011;8434;47.990;7.880;2023-05-20T03:46:23;6.60;;;5.70;;
16640;SDS011;8434;47.990;7.880;2023-05-20T03:49:08;6.37;;;5.63;;
16640;SDS011;8434;47.990;7.880;2023-05-20T03:51:55;8.37;;;5.27;;
16640;SDS011;8434;47.990;7.880;2023-05-20T03:54:41;8.00;;;5.83;;
16640;SDS011;8434;47.990;7.880;2023-05-20T03:57:26;7.97;;;5.93;;
16640;SDS011;8434;47.990;7.880;2023-05-20T04:00:12;5.53;;;4.90;;
16640;SDS011;8434;47.990;7.880;2023-05-20T04:03:02;6.40;;;5.70;;
16640;SDS011;8434;47.990;7.880;2023-05-20T04:05:49;10.67;;;6.50;;
16640;SDS011;8434;47.990;7.880;2023-05-20T04:08:39;8.20;;;5.53;;
16640;SDS011;8434;47.990;7.880;2023-05-20T04:11:25;7.60;;;6.00;;
16640;SDS011;8434;47.990;7.880;2023-05-20T04:14:10;8.47;;;5.57;;
16640;SDS011;8434;47.990;7.880;2023-05-20T04:16:56;8.77;;;6.73;;
16640;SDS011;8434;47.990;7.880;2023-05-20T04:19:42;8.23;;;6.77;;
16640;SDS011;8434;47.990;7.880;2023-05-20T04:22:28;7.43;;;5.60;;
16640;SDS011;8434;47.990;7.880;2023-05-20T04:25:15;6.60;;;5.10;;
16640;SDS011;8434;47.990;7.880;2023-05-20T04:28:01;6.67;;;5.23;;
16640;SDS011;8434;47.990;7.880;2023-05-20T04:30:46;6.57;;;4.87;;
16640;SDS011;8434;47.990;7.880;2023-05-20T04:33:33;7.07;;;5.30;;
16640;SDS011;8434;47.990;7.880;2023-05-20T04:36:22;6.43;;;5.30;;
16640;SDS011;8434;47.990;7.880;2023-05-20T04:39:13;6.90;;;5.40;;
16640;SDS011;8434;47.990;7.880;2023-05-20T04:42:00;6.80;;;6.00;;
16640;SDS011;8434;47.990;7.880;2023-05-20T04:44:45;10.53;;;6.03;;
16640;SDS011;8434;47.990;7.880;2023-05-20T04:47:31;8.00;;;6.27;;
16640;SDS011;8434;47.990;7.880;2023-05-20T04:50:22;7.07;;;4.73;;
16640;SDS011;8434;47.990;7.880;2023-05-20T04:53:08;6.87;;;5.10;;
16640;SDS011;8434;47.990;7.880;2023-05-20T04:55:53;5.47;;;4.87;;
16640;SDS011;8434;47.990;7.880;2023-05-20T04:58:40;7.87;;;5.57;;
16640;SDS011;8434;47.990;7.880;2023-05-20T05:01:26;7.43;;;4.90;;
16640;SDS011;8434;47.990;7.880;2023-05-20T05:04:11;6.47;;;5.30;;
16640;SDS011;8434;47.990;7.880;2023-05-20T05:06:57;6.47;;;5.63;;
16640;SDS011;8434;47.990;7.880;2023-05-20T05:09:43;6.23;;;5.63;;
16640;SDS011;8434;47.990;7.880;2023-05-20T05:12:28;8.60;;;5.43;;
16640;SDS011;8434;47.990;7.880;2023-05-20T05:15:17;6.57;;;5.50;;
16640;SDS011;8434;47.990;7.880;2023-05-20T05:18:02;5.43;;;4.93;;
16640;SDS011;8434;47.990;7.880;2023-05-20T05:20:48;6.77;;;5.47;;
16640;SDS011;8434;47.990;7.880;2023-05-20T05:23:33;6.87;;;5.53;;
16640;SDS011;8434;47.990;7.880;2023-05-20T05:26:18;6.87;;;4.80;;
16640;SDS011;8434;47.990;7.880;2023-05-20T05:29:05;8.57;;;5.70;;
16640;SDS011;8434;47.990;7.880;2023-05-20T05:31:51;7.97;;;5.50;;
16640;SDS011;8434;47.990;7.880;2023-05-20T05:34:37;8.73;;;5.13;;
16640;SDS011;8434;47.990;7.880;2023-05-20T05:37:22;6.13;;;4.73;;
16640;SDS011;8434;47.990;7.880;2023-05-20T05:40:08;7.13;;;5.10;;
16640;SDS011;8434;47.990;7.880;2023-05-20T05:42:53;5.70;;;5.20;;
16640;SDS011;8434;47.990;7.880;2023-05-20T05:45:39;5.57;;;5.00;;
16640;SDS011;8434;47.990;7.880;2023-05-20T05:48:27;4.97;;;4.47;;
16640;SDS011;8434;47.990;7.880;2023-05-20T05:51:13;5.97;;;4.67;;
16640;SDS011;8434;47.990;7.880;2023-05-20T05:53:59;5.47;;;4.60;;
16640;SDS011;8434;47.990;7.880;2023-05-20T05:56:44;6.40;;;5.47;;
16640;SDS011;8434;47.990;7.880;2023-05-20T05:59:30;5.30;;;4.57;;
16640;SDS011;8434;47.990;7.880;2023-05-20T06:02:16;7.40;;;5.47;;
16640;SDS011;8434;47.990;7.880;2023-05-20T06:05:03;5.90;;;4.60;;
16640;SDS011;8434;47.990;7.880;2023-05-20T06:07:49;7.30;;;4.97;;
16640;SDS011;8434;47.990;7.880;2023-05-20T06:10:35;9.33;;;5.83;;
16640;SDS011;8434;47.990;7.880;2023-05-20T06:13:20;6.17;;;4.30;;
16640;SDS011;8434;47.990;7.880;2023-05-20T06:16:05;6.47;;;4.30;;
16640;SDS011;8434;47.990;7.880;2023-05-20T06:18:51;6.37;;;4.67;;
16640;SDS011;8434;47.990;7.880;2023-05-20T06:24:48;5.27;;;4.07;;
16640;SDS011;8434;47.990;7.880;2023-05-20T06:27:33;6.90;;;5.10;;
16640;SDS011;8434;47.990;7.880;2023-05-20T06:30:19;4.87;;;4.37;;
16640;SDS011;8434;47.990;7.880;2023-05-20T06:33:05;4.90;;;4.40;;
16640;SDS011;8434;47.990;7.880;2023-05-20T06:35:50;6.37;;;4.90;;
16640;SDS011;8434;47.990;7.880;2023-05-20T06:38:36;8.93;;;5.23;;
16640;SDS011;8434;47.990;7.880;2023-05-20T06:41:22;5.80;;;4.73;;
16640;SDS011;8434;47.990;7.880;2023-05-20T06:44:08;4.57;;;4.10;;
16640;SDS011;8434;47.990;7.880;2023-05-20T06:47:15;5.23;;;4.60;;
16640;SDS011;8434;47.990;7.880;2023-05-20T06:50:01;7.97;;;5.00;;
16640;SDS011;8434;47.990;7.880;2023-05-20T06:52:47;5.33;;;4.50;;
16640;SDS011;8434;47.990;7.880;2023-05-20T06:55:33;5.77;;;4.67;;
16640;SDS011;8434;47.990;7.880;2023-05-20T06:58:20;5.80;;;4.93;;
16640;SDS011;8434;47.990;7.880;2023-05-20T07:01:05;6.73;;;4.23;;
16640;SDS011;8434;47.990;7.880;2023-05-20T07:03:51;7.03;;;4.83;;
16640;SDS011;8434;47.990;7.880;2023-05-20T07:06:36;8.80;;;5.07;;
16640;SDS011;8434;47.990;7.880;2023-05-20T07:09:22;4.93;;;4.37;;
16640;SDS011;8434;47.990;7.880;2023-05-20T07:12:08;10.27;;;4.10;;
16640;SDS011;8434;47.990;7.880;2023-05-20T07:14:55;6.43;;;4.50;;
16640;SDS011;8434;47.990;7.880;2023-05-20T07:17:40;5.87;;;4.53;;
16640;SDS011;8434;47.990;7.880;2023-05-20T07:20:26;5.30;;;4.20;;
16640;SDS011;8434;47.990;7.880;2023-05-20T07:23:12;5.47;;;4.50;;
16640;SDS011;8434;47.990;7.880;2023-05-20T07:26:00;6.57;;;4.20;;
16640;SDS011;8434;47.990;7.880;2023-05-20T07:28:46;4.37;;;3.97;;
16640;SDS011;8434;47.990;7.880;2023-05-20T07:31:33;4.53;;;4.13;;
16640;SDS011;8434;47.990;7.880;2023-05-20T07:34:19;6.83;;;4.13;;
16640;SDS011;8434;47.990;7.880;2023-05-20T07:37:06;6.77;;;4.40;;
16640;SDS011;8434;47.990;7.880;2023-05-20T07:39:53;5.37;;;4.57;;
16640;SDS011;8434;47.990;7.880;2023-05-20T07:42:39;5.70;;;4.40;;
16640;SDS011;8434;47.990;7.880;2023-05-20T07:45:24;5.40;;;4.13;;
16640;SDS011;8434;47.990;7.880;2023-05-20T07:48:12;5.50;;;4.37;;
16640;SDS011;8434;47.990;7.880;2023-05-20T07:51:22;8.67;;;3.73;;
16640;SDS011;8434;47.990;7.880;2023-05-20T07:54:07;4.63;;;4.07;;
16640;SDS011;8434;47.990;7.880;2023-05-20T07:56:54;4.20;;;3.80;;
16640;SDS011;8434;47.990;7.880;2023-05-20T07:59:39;5.43;;;3.97;;
16640;SDS011;8434;47.990;7.880;2023-05-20T08:02:25;4.50;;;3.80;;
16640;SDS011;8434;47.990;7.880;2023-05-20T08:05:12;5.70;;;3.60;;
16640;SDS011;8434;47.990;7.880;2023-05-20T08:07:58;4.87;;;4.07;;
16640;SDS011;8434;47.990;7.880;2023-05-20T08:10:46;7.23;;;4.30;;
16640;SDS011;8434;47.990;7.880;2023-05-20T08:13:31;4.00;;;3.60;;
16640;SDS011;8434;47.990;7.880;2023-05-20T08:16:19;4.93;;;4.00;;
16640;SDS011;8434;47.990;7.880;2023-05-20T08:19:05;4.17;;;3.67;;
16640;SDS011;8434;47.990;7.880;2023-05-20T08:21:52;4.00;;;3.60;;
16640;SDS011;8434;47.990;7.880;2023-05-20T08:24:37;6.70;;;4.20;;
16640;SDS011;8434;47.990;7.880;2023-05-20T08:27:23;5.33;;;4.60;;
16640;SDS011;8434;47.990;7.880;2023-05-20T08:30:09;4.73;;;4.33;;
16640;SDS011;8434;47.990;7.880;2023-05-20T08:32:55;4.70;;;4.30;;
16640;SDS011;8434;47.990;7.880;2023-05-20T08:35:42;6.63;;;4.73;;
16640;SDS011;8434;47.990;7.880;2023-05-20T08:38:28;4.67;;;4.17;;
16640;SDS011;8434;47.990;7.880;2023-05-20T08:41:14;6.33;;;4.60;;
16640;SDS011;8434;47.990;7.880;2023-05-20T08:44:02;5.17;;;4.17;;
16640;SDS011;8434;47.990;7.880;2023-05-20T08:46:48;5.93;;;4.30;;
16640;SDS011;8434;47.990;7.880;2023-05-20T08:49:35;5.30;;;4.80;;
16640;SDS011;8434;47.990;7.880;2023-05-20T08:52:21;5.70;;;4.90;;
16640;SDS011;8434;47.990;7.880;2023-05-20T08:55:08;6.00;;;4.87;;
16640;SDS011;8434;47.990;7.880;2023-05-20T08:57:55;5.53;;;5.03;;
16640;SDS011;8434;47.990;7.880;2023-05-20T09:00:40;5.80;;;4.90;;
16640;SDS011;8434;47.990;7.880;2023-05-20T09:03:26;6.10;;;5.50;;
16640;SDS011;8434;47.990;7.880;2023-05-20T09:06:15;5.37;;;4.67;;
16640;SDS011;8434;47.990;7.880;2023-05-20T09:09:00;8.13;;;5.30;;
16640;SDS011;8434;47.990;7.880;2023-05-20T09:11:47;6.70;;;5.57;;
16640;SDS011;8434;47.990;7.880;2023-05-20T09:14:33;5.73;;;5.03;;
16640;SDS011;8434;47.990;7.880;2023-05-20T09:17:19;6.60;;;4.80;;
16640;SDS011;8434;47.990;7.880;2023-05-20T09:20:06;7.93;;;5.57;;
16640;SDS011;8434;47.990;7.880;2023-05-20T09:22:52;6.30;;;5.00;;
16640;SDS011;8434;47.990;7.880;2023-05-20T09:25:38;6.03;;;5.43;;
16640;SDS011;8434;47.990;7.880;2023-05-20T09:28:25;7.47;;;5.03;;
16640;SDS011;8434;47.990;7.880;2023-05-20T09:31:12;6.07;;;4.87;;
16640;SDS011;8434;47.990;7.880;2023-05-20T09:33:58;8.43;;;4.93;;
16640;SDS011;8434;47.990;7.880;2023-05-20T09:36:44;4.67;;;4.23;;
16640;SDS011;8434;47.990;7.880;2023-05-20T09:39:31;6.63;;;4.70;;
16640;SDS011;8434;47.990;7.880;2023-05-20T09:42:19;5.43;;;4.60;;
16640;SDS011;8434;47.990;7.880;2023-05-20T09:45:08;4.87;;;4.33;;
16640;SDS011;8434;47.990;7.880;2023-05-20T09:47:54;5.37;;;4.60;;
16640;SDS011;8434;47.990;7.880;2023-05-20T09:50:39;5.67;;;5.07;;
16640;SDS011;8434;47.990;7.880;2023-05-20T09:53:25;6.17;;;4.77;;
16640;SDS011;8434;47.990;7.880;2023-05-20T09:56:11;4.40;;;4.00;;
16640;SDS011;8434;47.990;7.880;2023-05-20T09:58:57;4.50;;;4.10;;
16640;SDS011;8434;47.990;7.880;2023-05-20T10:01:44;5.33;;;4.20;;
16640;SDS011;8434;47.990;7.880;2023-05-20T10:04:29;4.27;;;3.87;;
16640;SDS011;8434;47.990;7.880;2023-05-20T10:07:21;4.50;;;3.97;;
16640;SDS011;8434;47.990;7.880;2023-05-20T10:10:13;5.67;;;4.53;;
16640;SDS011;8434;47.990;7.880;2023-05-20T10:13:04;5.17;;;4.50;;
16640;SDS011;8434;47.990;7.880;2023-05-20T10:15:54;5.47;;;4.47;;
16640;SDS011;8434;47.990;7.880;2023-05-20T10:18:47;5.53;;;4.40;;
16640;SDS011;8434;47.990;7.880;2023-05-20T10:21:34;6.03;;;4.23;;
16640;SDS011;8434;47.990;7.880;2023-05-20T10:24:27;5.03;;;4.63;;
16640;SDS011;8434;47.990;7.880;2023-05-20T10:27:13;4.77;;;4.37;;
16640;SDS011;8434;47.990;7.880;2023-05-20T10:29:59;4.87;;;4.33;;
16640;SDS011;8434;47.990;7.880;2023-05-20T10:32:48;4.70;;;4.20;;
16640;SDS011;8434;47.990;7.880;2023-05-20T10:35:35;4.30;;;3.90;;
16640;SDS011;8434;47.990;7.880;2023-05-20T10:38:23;5.53;;;4.60;;
16640;SDS011;8434;47.990;7.880;2023-05-20T10:41:08;5.20;;;4.53;;
16640;SDS011;8434;47.990;7.880;2023-05-20T10:44:00;5.35;;;4.53;;
16640;SDS011;8434;47.990;7.880;2023-05-20T10:46:46;5.07;;;4.57;;
16640;SDS011;8434;47.990;7.880;2023-05-20T10:49:45;5.03;;;4.60;;
16640;SDS011;8434;47.990;7.880;2023-05-20T10:52:33;4.75;;;4.25;;
16640;SDS011;8434;47.990;7.880;2023-05-20T10:55:20;4.68;;;4.28;;
16640;SDS011;8434;47.990;7.880;2023-05-20T10:58:06;4.70;;;4.30;;
16640;SDS011;8434;47.990;7.880;2023-05-20T11:00:52;5.00;;;4.60;;
16640;SDS011;8434;47.990;7.880;2023-05-20T11:03:38;4.55;;;4.15;;
16640;SDS011;8434;47.990;7.880;2023-05-20T11:06:25;5.50;;;4.20;;
16640;SDS011;8434;47.990;7.880;2023-05-20T11:09:12;4.97;;;4.18;;
16640;SDS011;8434;47.990;7.880;2023-05-20T11:11:58;4.50;;;4.10;;
16640;SDS011;8434;47.990;7.880;2023-05-20T11:14:43;4.78;;;4.20;;
16640;SDS011;8434;47.990;7.880;2023-05-20T11:17:29;4.83;;;4.20;;
16640;SDS011;8434;47.990;7.880;2023-05-20T11:20:14;4.90;;;4.40;;
16640;SDS011;8434;47.990;7.880;2023-05-20T11:23:00;4.10;;;3.67;;
16640;SDS011;8434;47.990;7.880;2023-05-20T11:25:47;4.82;;;3.80;;
16640;SDS011;8434;47.990;7.880;2023-05-20T11:28:34;4.50;;;4.10;;
16640;SDS011;8434;47.990;7.880;2023-05-20T11:31:19;4.78;;;3.92;;
16640;SDS011;8434;47.990;7.880;2023-05-20T11:34:04;4.18;;;3.78;;
16640;SDS011;8434;47.990;7.880;2023-05-20T11:36:54;4.30;;;3.90;;
16640;SDS011;8434;47.990;7.880;2023-05-20T11:39:40;5.25;;;4.15;;
16640;SDS011;8434;47.990;7.880;2023-05-20T11:42:27;4.55;;;4.15;;
16640;SDS011;8434;47.990;7.880;2023-05-20T11:45:15;4.47;;;4.07;;
16640;SDS011;8434;47.990;7.880;2023-05-20T11:48:01;4.60;;;4.20;;
16640;SDS011;8434;47.990;7.880;2023-05-20T11:50:46;4.72;;;4.30;;
16640;SDS011;8434;47.990;7.880;2023-05-20T11:53:32;4.78;;;4.38;;
16640;SDS011;8434;47.990;7.880;2023-05-20T11:56:17;4.88;;;3.83;;
16640;SDS011;8434;47.990;7.880;2023-05-20T11:59:06;5.18;;;4.20;;
16640;SDS011;8434;47.990;7.880;2023-05-20T12:01:52;4.35;;;3.80;;
16640;SDS011;8434;47.990;7.880;2023-05-20T12:04:38;5.43;;;3.78;;
16640;SDS011;8434;47.990;7.880;2023-05-20T12:07:23;4.60;;;3.95;;
16640;SDS011;8434;47.990;7.880;2023-05-20T12:10:10;4.78;;;4.32;;
16640;SDS011;8434;47.990;7.880;2023-05-20T12:12:56;4.53;;;4.13;;
16640;SDS011;8434;47.990;7.880;2023-05-20T12:15:43;4.65;;;4.03;;
16640;SDS011;8434;47.990;7.880;2023-05-20T12:18:28;5.82;;;4.30;;
16640;SDS011;8434;47.990;7.880;2023-05-20T12:21:13;4.78;;;4.38;;
16640;SDS011;8434;47.990;7.880;2023-05-20T12:23:59;4.07;;;3.75;;
16640;SDS011;8434;47.990;7.880;2023-05-20T12:26:45;5.35;;;3.83;;
16640;SDS011;8434;47.990;7.880;2023-05-20T12:29:30;5.03;;;3.90;;
16640;SDS011;8434;47.990;7.880;2023-05-20T12:32:17;4.35;;;3.95;;
16640;SDS011;8434;47.990;7.880;2023-05-20T12:35:04;4.18;;;3.88;;
16640;SDS011;8434;47.990;7.880;2023-05-20T12:37:50;4.32;;;3.92;;
16640;SDS011;8434;47.990;7.880;2023-05-20T12:40:35;4.55;;;3.83;;
16640;SDS011;8434;47.990;7.880;2023-05-20T12:43:21;4.55;;;4.15;;
16640;SDS011;8434;47.990;7.880;2023-05-20T12:46:06;4.10;;;3.70;;
16640;SDS011;8434;47.990;7.880;2023-05-20T12:48:53;3.85;;;3.42;;
16640;SDS011;8434;47.990;7.880;2023-05-20T12:51:38;4.68;;;3.70;;
16640;SDS011;8434;47.990;7.880;2023-05-20T12:54:24;3.53;;;3.22;;
16640;SDS011;8434;47.990;7.880;2023-05-20T12:57:10;4.05;;;3.65;;
16640;SDS011;8434;47.990;7.880;2023-05-20T12:59:56;4.43;;;3.58;;
16640;SDS011;8434;47.990;7.880;2023-05-20T13:02:42;4.70;;;3.30;;
16640;SDS011;8434;47.990;7.880;2023-05-20T13:05:28;4.10;;;3.80;;
16640;SDS011;8434;47.990;7.880;2023-05-20T13:08:14;3.80;;;3.50;;
16640;SDS011;8434;47.990;7.880;2023-05-20T13:10:59;4.40;;;4.00;;
16640;SDS011;8434;47.990;7.880;2023-05-20T13:13:45;4.22;;;3.72;;
16640;SDS011;8434;47.990;7.880;2023-05-20T13:16:30;4.43;;;3.67;;
16640;SDS011;8434;47.990;7.880;2023-05-20T13:19:15;4.55;;;4.15;;
16640;SDS011;8434;47.990;7.880;2023-05-20T13:22:02;4.35;;;3.92;;
16640;SDS011;8434;47.990;7.880;2023-05-20T13:24:48;4.20;;;3.80;;
16640;SDS011;8434;47.990;7.880;2023-05-20T13:27:34;4.13;;;3.78;;
16640;SDS011;8434;47.990;7.880;2023-05-20T13:30:19;4.07;;;3.75;;
16640;SDS011;8434;47.990;7.880;2023-05-20T13:33:05;3.40;;;3.10;;
16640;SDS011;8434;47.990;7.880;2023-05-20T13:35:50;4.57;;;4.15;;
16640;SDS011;8434;47.990;7.880;2023-05-20T13:38:37;4.50;;;4.10;;
16640;SDS011;8434;47.990;7.880;2023-05-20T13:41:22;4.53;;;3.97;;
16640;SDS011;8434;47.990;7.880;2023-05-20T13:44:09;5.43;;;4.20;;
16640;SDS011;8434;47.990;7.880;2023-05-20T13:46:54;3.83;;;3.53;;
16640;SDS011;8434;47.990;7.880;2023-05-20T13:49:40;4.15;;;3.75;;
16640;SDS011;8434;47.990;7.880;2023-05-20T13:52:25;4.75;;;3.63;;
16640;SDS011;8434;47.990;7.880;2023-05-20T13:55:12;3.90;;;3.60;;
16640;SDS011;8434;47.990;7.880;2023-05-20T13:57:58;8.10;;;3.90;;
16640;SDS011;8434;47.990;7.880;2023-05-20T14:00:43;4.22;;;3.72;;
16640;SDS011;8434;47.990;7.880;2023-05-20T14:03:29;3.97;;;3.58;;
16640;SDS011;8434;47.990;7.880;2023-05-20T14:06:16;3.50;;;3.30;;
16640;SDS011;8434;47.990;7.880;2023-05-20T14:09:02;4.63;;;3.72;;
16640;SDS011;8434;47.990;7.880;2023-05-20T14:11:48;4.10;;;3.67;;
16640;SDS011;8434;47.990;7.880;2023-05-20T14:14:34;3.80;;;3.50;;
16640;SDS011;8434;47.990;7.880;2023-05-20T14:17:20;3.28;;;3.00;;
16640;SDS011;8434;47.990;7.880;2023-05-20T14:20:06;3.90;;;3.60;;
16640;SDS011;8434;47.990;7.880;2023-05-20T14:22:52;4.93;;;3.80;;
16640;SDS011;8434;47.990;7.880;2023-05-20T14:25:37;4.00;;;3.60;;
16640;SDS011;8434;47.990;7.880;2023-05-20T14:28:24;3.85;;;3.45;;
16640;SDS011;8434;47.990;7.880;2023-05-20T14:31:09;4.00;;;3.60;;
16640;SDS011;8434;47.990;7.880;2023-05-20T14:33:55;4.43;;;4.03;;
16640;SDS011;8434;47.990;7.880;2023-05-20T14:36:40;5.60;;;4.28;;
16640;SDS011;8434;47.990;7.880;2023-05-20T14:39:26;4.18;;;3.78;;
16640;SDS011;8434;47.990;7.880;2023-05-20T14:42:11;3.95;;;3.55;;
16640;SDS011;8434;47.990;7.880;2023-05-20T14:44:58;4.22;;;3.83;;
16640;SDS011;8434;47.990;7.880;2023-05-20T14:47:44;4.15;;;3.75;;
16640;SDS011;8434;47.990;7.880;2023-05-20T14:50:29;4.13;;;3.75;;
16640;SDS011;8434;47.990;7.880;2023-05-20T14:53:19;4.63;;;4.22;;
16640;SDS011;8434;47.990;7.880;2023-05-20T14:56:05;4.38;;;3.97;;
16640;SDS011;8434;47.990;7.880;2023-05-20T14:58:50;4.32;;;4.00;;
16640;SDS011;8434;47.990;7.880;2023-05-20T15:01:37;8.02;;;4.70;;
16640;SDS011;8434;47.990;7.880;2023-05-20T15:04:23;4.50;;;3.97;;
16640;SDS011;8434;47.990;7.880;2023-05-20T15:07:08;4.40;;;4.00;;
16640;SDS011;8434;47.990;7.880;2023-05-20T15:09:54;4.22;;;3.83;;
16640;SDS011;8434;47.990;7.880;2023-05-20T15:12:39;4.70;;;4.30;;
16640;SDS011;8434;47.990;7.880;2023-05-20T15:15:25;4.93;;;4.40;;
16640;SDS011;8434;47.990;7.880;2023-05-20T15:18:13;4.30;;;3.90;;
16640;SDS011;8434;47.990;7.880;2023-05-20T15:20:58;5.53;;;4.20;;
16640;SDS011;8434;47.990;7.880;2023-05-20T15:23:44;4.93;;;4.40;;
16640;SDS011;8434;47.990;7.880;2023-05-20T15:26:30;5.35;;;3.92;;
16640;SDS011;8434;47.990;7.880;2023-05-20T15:29:15;4.22;;;3.85;;
16640;SDS011;8434;47.990;7.880;2023-05-20T15:32:04;4.30;;;4.00;;
16640;SDS011;8434;47.990;7.880;2023-05-20T15:34:51;3.67;;;3.38;;
16640;SDS011;8434;47.990;7.880;2023-05-20T15:37:37;4.13;;;3.67;;
16640;SDS011;8434;47.990;7.880;2023-05-20T15:40:22;4.80;;;4.30;;
16640;SDS011;8434;47.990;7.880;2023-05-20T15:43:08;5.18;;;4.10;;
16640;SDS011;8434;47.990;7.880;2023-05-20T15:45:53;3.92;;;3.63;;
16640;SDS011;8434;47.990;7.880;2023-05-20T15:48:39;4.40;;;4.00;;
16640;SDS011;8434;47.990;7.880;2023-05-20T15:51:25;4.45;;;4.05;;
16640;SDS011;8434;47.990;7.880;2023-05-20T15:54:11;5.47;;;4.53;;
16640;SDS011;8434;47.990;7.880;2023-05-20T15:56:56;11.10;;;8.45;;
16640;SDS011;8434;47.990;7.880;2023-05-20T15:59:42;5.55;;;4.10;;
16640;SDS011;8434;47.990;7.880;2023-05-20T16:02:27;5.03;;;4.63;;
16640;SDS011;8434;47.990;7.880;2023-05-20T16:05:14;3.70;;;3.40;;
16640;SDS011;8434;47.990;7.880;2023-05-20T16:08:01;5.25;;;3.75;;
16640;SDS011;8434;47.990;7.880;2023-05-20T16:10:47;4.68;;;4.15;;
16640;SDS011;8434;47.990;7.880;2023-05-20T16:13:32;4.72;;;4.32;;
16640;SDS011;8434;47.990;7.880;2023-05-20T16:16:18;4.38;;;3.95;;
16640;SDS011;8434;47.990;7.880;2023-05-20T16:19:03;5.75;;;5.25;;
16640;SDS011;8434;47.990;7.880;2023-05-20T16:21:49;5.18;;;3.88;;
16640;SDS011;8434;47.990;7.880;2023-05-20T16:24:36;7.40;;;4.13;;
16640;SDS011;8434;47.990;7.880;2023-05-20T16:27:21;4.90;;;4.13;;
16640;SDS011;8434;47.990;7.880;2023-05-20T16:30:07;4.75;;;4.35;;
16640;SDS011;8434;47.990;7.880;2023-05-20T16:32:52;3.95;;;3.65;;
16640;SDS011;8434;47.990;7.880;2023-05-20T16:35:38;4.47;;;4.07;;
16640;SDS011;8434;47.990;7.880;2023-05-20T16:38:23;4.78;;;4.38;;
16640;SDS011;8434;47.990;7.880;2023-05-20T16:41:11;4.30;;;3.90;;
16640;SDS011;8434;47.990;7.880;2023-05-20T16:43:57;5.60;;;3.95;;
16640;SDS011;8434;47.990;7.880;2023-05-20T16:46:42;4.40;;;4.07;;
16640;SDS011;8434;47.990;7.880;2023-05-20T16:49:27;4.55;;;4.15;;
16640;SDS011;8434;47.990;7.880;2023-05-20T16:52:13;4.55;;;4.10;;
16640;SDS011;8434;47.990;7.880;2023-05-20T16:54:58;4.15;;;3.75;;
16640;SDS011;8434;47.990;7.880;2023-05-20T16:57:47;5.50;;;4.03;;
16640;SDS011;8434;47.990;7.880;2023-05-20T17:00:33;4.20;;;3.50;;
16640;SDS011;8434;47.990;7.880;2023-05-20T17:03:19;4.20;;;3.80;;